createdAt,value
2022-11-24T00:01:25.071Z,94145.48
2022-11-24T00:04:02.038Z,94145.86
2022-11-24T00:06:32.180Z,94147.27
2022-11-24T00:09:00.862Z,94148.00
2022-11-24T00:11:32.815Z,94148.81
2022-11-24T00:14:01.866Z,94153.49
2022-11-24T00:16:35.435Z,94151.55
2022-11-24T00:19:05.877Z,94151.11
2022-11-24T00:21:33.910Z,94151.70
2022-11-24T00:24:02.503Z,94154.44
2022-11-24T00:26:33.532Z,94154.73
2022-11-24T00:29:04.979Z,94153.41
2022-11-24T00:31:38.007Z,94153.31
2022-11-24T00:34:10.728Z,94153.66
2022-11-24T00:36:39.765Z,94154.17
2022-11-24T00:39:13.349Z,94154.71
2022-11-24T00:41:42.772Z,94159.38
2022-11-24T00:44:10.938Z,94162.16
2022-11-24T00:46:39.464Z,94160.66
2022-11-24T00:49:07.981Z,94162.63
2022-11-24T00:51:36.079Z,94167.70
2022-11-24T00:54:04.118Z,94165.89
2022-11-24T00:56:32.522Z,94167.86
2022-11-24T00:59:00.609Z,94165.35
2022-11-24T01:01:33.628Z,94167.66
2022-11-24T01:04:02.175Z,94168.38
2022-11-24T01:06:31.138Z,94170.41
2022-11-24T01:08:59.241Z,94172.62
2022-11-24T01:11:51.563Z,94171.50
2022-11-24T01:14:20.832Z,94169.80
2022-11-24T01:16:49.306Z,94172.36
2022-11-24T01:19:17.681Z,94176.51
2022-11-24T01:21:46.683Z,94178.51
2022-11-24T01:24:14.717Z,94180.43
2022-11-24T01:26:43.076Z,94180.45
2022-11-24T01:29:12.479Z,94179.91
2022-11-24T01:31:41.109Z,94179.02
2022-11-24T01:34:09.463Z,94184.11
2022-11-24T01:36:37.551Z,94180.23
2022-11-24T01:39:05.738Z,94176.84
2022-11-24T01:41:35.359Z,94178.41
2022-11-24T01:44:27.028Z,94182.94
2022-11-24T01:47:02.895Z,94180.95
2022-11-24T01:49:39.846Z,94180.48
2022-11-24T01:52:20.170Z,94180.43
2022-11-24T01:54:55.620Z,94177.15
2022-11-24T01:57:27.688Z,94186.61
2022-11-24T02:00:02.075Z,94184.81
2022-11-24T02:02:44.701Z,94188.70
2022-11-24T02:05:26.555Z,94188.08
2022-11-24T02:07:57.928Z,94191.74
2022-11-24T02:10:26.115Z,94190.13
2022-11-24T02:12:57.808Z,94191.36
2022-11-24T02:15:26.692Z,94193.23
2022-11-24T02:17:54.739Z,94193.52
2022-11-24T02:20:23.066Z,94192.58
2022-11-24T02:22:59.651Z,94195.18
2022-11-24T02:25:52.938Z,94190.41
2022-11-24T02:28:23.712Z,94190.36
2022-11-24T02:30:53.048Z,94190.23
2022-11-24T02:33:22.797Z,94190.96
2022-11-24T02:35:52.248Z,94189.95
2022-11-24T02:38:30.015Z,94186.64
2022-11-24T02:41:00.568Z,94189.14
2022-11-24T02:43:33.320Z,94189.14
2022-11-24T02:46:01.452Z,94190.73
2022-11-24T02:48:29.517Z,94193.85
2022-11-24T02:50:57.461Z,94193.84
2022-11-24T02:53:25.412Z,94193.12
2022-11-24T02:55:53.619Z,94192.15
2022-11-24T02:58:21.714Z,94191.30
2022-11-24T03:00:50.405Z,94196.52
2022-11-24T03:03:18.372Z,94195.23
2022-11-24T03:05:46.396Z,94194.83
2022-11-24T03:08:14.436Z,94196.75
2022-11-24T03:10:42.871Z,94194.77
2022-11-24T03:13:10.950Z,94196.41
2022-11-24T03:15:39.067Z,94194.87
2022-11-24T03:18:07.335Z,94195.73
2022-11-24T03:20:35.335Z,94195.95
2022-11-24T03:23:03.596Z,94194.96
2022-11-24T03:25:31.809Z,94198.39
2022-11-24T03:27:59.956Z,94197.27
2022-11-24T03:30:28.330Z,94193.64
2022-11-24T03:32:56.495Z,94195.66
2022-11-24T03:35:24.514Z,94197.63
2022-11-24T03:37:52.740Z,94198.73
2022-11-24T03:40:20.712Z,94200.23
2022-11-24T03:42:48.912Z,94203.23
2022-11-24T03:45:44.316Z,94200.73
2022-11-24T03:48:05.590Z,94200.88
2022-11-24T03:50:33.664Z,94198.86
2022-11-24T03:53:01.619Z,94202.14
2022-11-24T03:55:29.692Z,94198.77
2022-11-24T03:57:57.761Z,94197.05
2022-11-24T04:00:26.539Z,94195.65
2022-11-24T04:02:54.560Z,94197.94
2022-11-24T04:05:23.002Z,94200.77
2022-11-24T04:07:51.013Z,94204.79
2022-11-24T04:10:19.182Z,94208.19
2022-11-24T04:12:47.375Z,94210.63
2022-11-24T04:15:19.180Z,94212.77
2022-11-24T04:17:48.873Z,94214.20
2022-11-24T04:20:17.709Z,94217.24
2022-11-24T04:22:45.708Z,94218.05
2022-11-24T04:25:13.836Z,94224.38
2022-11-24T04:27:42.237Z,94224.66
2022-11-24T04:30:10.631Z,94226.75
2022-11-24T04:32:38.758Z,94231.75
2022-11-24T04:35:07.408Z,94230.03
2022-11-24T04:37:35.632Z,94230.98
2022-11-24T04:40:05.136Z,94234.61
2022-11-24T04:42:33.404Z,94239.20
2022-11-24T04:45:01.489Z,94245.13
2022-11-24T04:47:29.679Z,94249.55
2022-11-24T04:49:57.730Z,94247.13
2022-11-24T04:52:26.616Z,94250.36
2022-11-24T04:54:54.626Z,94255.47
2022-11-24T04:57:25.839Z,94257.19
2022-11-24T04:59:54.609Z,94260.98
2022-11-24T05:02:23.438Z,94262.38
2022-11-24T05:04:51.764Z,94263.33
2022-11-24T05:07:20.055Z,94263.52
2022-11-24T05:10:06.826Z,94265.92
2022-11-24T05:12:35.120Z,94270.02
2022-11-24T05:15:04.884Z,94273.69
2022-11-24T05:17:35.418Z,94274.70
2022-11-24T05:20:05.956Z,94277.88
2022-11-24T05:22:34.221Z,94280.72
2022-11-24T05:25:03.035Z,94284.48
2022-11-24T05:27:31.096Z,94287.05
2022-11-24T05:29:59.538Z,94282.61
2022-11-24T05:32:27.680Z,94290.11
2022-11-24T05:34:56.889Z,94290.46
2022-11-24T05:37:25.967Z,94296.91
2022-11-24T05:39:54.999Z,94299.58
2022-11-24T05:42:46.678Z,94302.02
2022-11-24T05:45:19.177Z,94303.52
2022-11-24T05:47:49.026Z,94307.31
2022-11-24T05:50:19.291Z,94312.36
2022-11-24T05:52:48.099Z,94311.42
2022-11-24T05:55:16.130Z,94310.84
2022-11-24T05:57:44.718Z,94315.25
2022-11-24T06:00:14.023Z,94315.44
2022-11-24T06:02:42.252Z,94317.30
2022-11-24T06:05:11.088Z,94326.27
2022-11-24T06:07:39.341Z,94327.30
2022-11-24T06:10:08.284Z,94328.09
2022-11-24T06:12:36.836Z,94333.15
2022-11-24T06:15:05.252Z,94331.05
2022-11-24T06:17:33.398Z,94334.23
2022-11-24T06:20:01.512Z,94339.16
2022-11-24T06:22:29.595Z,94337.60
2022-11-24T06:24:57.692Z,94334.70
2022-11-24T06:27:25.817Z,94347.52
2022-11-24T06:29:53.949Z,94349.13
2022-11-24T06:32:22.191Z,94349.16
2022-11-24T06:34:50.250Z,94354.90
2022-11-24T06:37:18.526Z,94357.89
2022-11-24T06:39:46.803Z,94362.02
2022-11-24T06:42:18.992Z,94364.11
2022-11-24T06:44:49.913Z,94369.73
2022-11-24T06:47:18.291Z,94373.64
2022-11-24T06:49:46.543Z,94377.02
2022-11-24T06:52:14.800Z,94380.34
2022-11-24T06:54:43.602Z,94383.33
2022-11-24T06:57:11.750Z,94386.77
2022-11-24T06:59:40.696Z,94391.32
2022-11-24T07:02:10.604Z,94398.41
2022-11-24T07:04:38.929Z,94400.02
2022-11-24T07:07:07.164Z,94403.36
2022-11-24T07:09:35.596Z,94406.26
2022-11-24T07:12:04.870Z,94407.05
2022-11-24T07:14:33.442Z,94409.79
2022-11-24T07:17:02.740Z,94410.76
2022-11-24T07:19:31.641Z,94410.83
2022-11-24T07:21:59.826Z,94410.05
2022-11-24T07:24:28.015Z,94409.37
2022-11-24T07:26:56.057Z,94413.71
2022-11-24T07:29:24.675Z,94418.57
2022-11-24T07:31:52.971Z,94414.54
2022-11-24T07:34:21.201Z,94417.50
2022-11-24T07:36:50.326Z,94418.25
2022-11-24T07:39:18.575Z,94416.97
2022-11-24T07:41:46.594Z,94420.89
2022-11-24T07:44:14.624Z,94425.00
2022-11-24T07:46:42.913Z,94425.29
2022-11-24T07:49:11.220Z,94423.43
2022-11-24T07:51:39.291Z,94422.91
2022-11-24T07:54:07.560Z,94426.14
2022-11-24T07:56:35.799Z,94428.74
2022-11-24T07:59:04.268Z,94431.86
2022-11-24T08:01:32.386Z,94437.30
2022-11-24T08:04:01.992Z,94438.83
2022-11-24T08:06:39.374Z,94438.52
2022-11-24T08:09:10.496Z,94439.64
2022-11-24T08:11:39.081Z,94438.88
2022-11-24T08:14:07.461Z,94435.90
2022-11-24T08:16:35.667Z,94441.61
2022-11-24T08:19:03.750Z,94442.16
2022-11-24T08:21:32.710Z,94447.61
2022-11-24T08:24:00.884Z,94450.42
2022-11-24T08:26:29.236Z,94456.68
2022-11-24T08:28:59.462Z,94455.77
2022-11-24T08:31:33.609Z,94455.55
2022-11-24T08:34:03.593Z,94458.84
2022-11-24T08:36:33.067Z,94462.88
2022-11-24T08:50:53.981Z,94467.80
2022-11-24T08:53:22.860Z,94469.14
2022-11-24T08:55:51.286Z,94468.80
2022-11-24T08:58:19.382Z,94469.52
2022-11-24T09:00:47.411Z,94477.23
2022-11-24T09:03:15.620Z,94481.20
2022-11-24T09:05:51.886Z,94481.52
2022-11-24T09:08:20.917Z,94481.59
2022-11-24T09:10:49.156Z,94480.98
2022-11-24T09:13:17.885Z,94476.81
2022-11-24T09:15:46.104Z,94477.36
2022-11-24T09:18:14.584Z,94479.27
2022-11-24T09:20:42.712Z,94478.48
2022-11-24T09:23:11.481Z,94481.92
2022-11-24T09:25:39.552Z,94481.73
2022-11-24T09:28:07.699Z,94481.36
2022-11-24T09:30:36.500Z,94480.91
2022-11-24T09:33:05.829Z,94477.73
2022-11-24T09:35:37.919Z,94483.66
2022-11-24T09:38:06.569Z,94482.09
2022-11-24T09:40:34.785Z,94484.98
2022-11-24T09:43:12.800Z,94486.27
2022-11-24T09:46:14.581Z,94484.25
2022-11-24T09:48:49.482Z,94486.65
2022-11-24T09:51:22.578Z,94486.82
2022-11-24T09:53:56.620Z,94486.64
2022-11-24T09:56:28.927Z,94482.67
2022-11-24T09:59:15.033Z,94477.78
2022-11-24T10:01:45.826Z,94480.13
2022-11-24T10:04:25.023Z,94479.00
2022-11-24T10:07:11.696Z,94479.55
2022-11-24T10:09:57.012Z,94480.17
2022-11-24T10:12:34.285Z,94478.40
2022-11-24T10:15:27.576Z,94474.58
2022-11-24T10:18:14.923Z,94474.63
2022-11-24T10:21:09.560Z,94475.99
2022-11-24T10:23:56.582Z,94475.09
2022-11-24T10:26:27.646Z,94480.11
2022-11-24T10:28:56.618Z,94477.63
2022-11-24T10:31:34.420Z,94480.38
2022-11-24T10:34:33.235Z,94477.39
2022-11-24T10:37:02.302Z,94477.50
2022-11-24T10:39:46.791Z,94481.90
2022-11-24T10:42:26.184Z,94479.79
2022-11-24T10:45:02.446Z,94480.99
2022-11-24T10:47:31.275Z,94482.15
2022-11-24T10:50:04.448Z,94480.98
2022-11-24T10:52:41.529Z,94483.23
2022-11-24T10:55:10.336Z,94482.80
2022-11-24T10:57:39.831Z,94481.92
2022-11-24T11:00:33.001Z,94485.50
2022-11-24T11:03:17.031Z,94484.64
2022-11-24T11:05:51.991Z,94487.27
2022-11-24T11:08:25.124Z,94486.73
2022-11-24T11:11:15.002Z,94486.67
2022-11-24T11:14:01.707Z,94491.13
2022-11-24T11:16:48.491Z,94493.77
2022-11-24T11:22:32.259Z,94497.51
2022-11-24T11:25:25.924Z,94498.06
2022-11-24T11:28:19.240Z,94499.28
2022-11-24T11:34:22.065Z,94502.55
2022-11-24T11:36:56.338Z,94500.61
2022-11-24T11:39:32.081Z,94503.84
2022-11-24T11:42:45.305Z,94505.27
2022-11-24T11:45:11.671Z,94507.00
2022-11-24T11:47:54.010Z,94508.66
2022-11-24T11:50:47.428Z,94508.90
2022-11-24T11:53:38.341Z,94507.64
2022-11-24T11:56:13.716Z,94508.42
2022-11-24T11:59:10.223Z,94511.63
2022-11-24T12:01:41.453Z,94512.55
2022-11-24T12:04:24.423Z,94512.70
2022-11-24T12:07:22.208Z,94513.75
2022-11-24T12:10:15.517Z,94518.52
2022-11-24T12:13:03.507Z,94518.32
2022-11-24T12:15:37.714Z,94516.48
2022-11-24T12:18:55.820Z,94518.96
2022-11-24T12:21:26.018Z,94518.50
2022-11-24T12:24:31.992Z,94519.14
2022-11-24T12:27:12.316Z,94521.23
2022-11-24T12:29:49.724Z,94523.52
2022-11-24T12:32:39.489Z,94522.98
2022-11-24T12:35:24.034Z,94528.88
2022-11-24T12:38:05.879Z,94530.33
2022-11-24T12:41:18.297Z,94532.30
2022-11-24T12:43:57.116Z,94531.67
2022-11-24T12:46:47.863Z,94531.81
2022-11-24T12:49:45.971Z,94531.46
2022-11-24T12:52:24.072Z,94536.36
2022-11-24T12:54:53.269Z,94536.54
2022-11-24T12:57:33.745Z,94537.56
2022-11-24T13:00:21.373Z,94535.94
2022-11-24T13:03:18.045Z,94540.85
2022-11-24T13:05:46.529Z,94545.49
2022-11-24T13:08:16.112Z,94545.80
2022-11-24T13:10:55.942Z,94549.70
2022-11-24T13:13:49.944Z,94551.57
2022-11-24T13:16:35.574Z,94553.23
2022-11-24T13:19:13.791Z,94556.01
2022-11-24T13:21:51.127Z,94553.25
2022-11-24T13:24:26.154Z,94554.71
2022-11-24T13:27:15.906Z,94558.40
2022-11-24T13:29:49.336Z,94557.05
2022-11-24T13:32:23.222Z,94560.85
2022-11-24T13:34:55.142Z,94559.81
2022-11-24T13:37:31.523Z,94560.08
2022-11-24T13:40:13.686Z,94559.83
2022-11-24T13:43:03.070Z,94560.50
2022-11-24T13:45:40.962Z,94555.74
2022-11-24T13:48:22.338Z,94560.95
2022-11-24T13:50:51.173Z,94559.27
2022-11-24T13:53:38.872Z,94562.98
2022-11-24T13:56:12.675Z,94565.59
2022-11-24T13:58:46.532Z,94573.42
2022-11-24T14:01:28.608Z,94577.55
2022-11-24T14:35:46.037Z,94605.71
2022-11-24T14:38:14.862Z,94610.21
2022-11-24T14:40:47.311Z,94613.97
2022-11-24T14:43:31.672Z,94612.71
2022-11-24T14:46:02.626Z,94616.70
2022-11-24T14:48:36.181Z,94614.70
2022-11-24T14:51:24.983Z,94622.04
2022-11-24T14:53:58.591Z,94617.40
2022-11-24T14:56:48.473Z,94621.17
2022-11-24T14:59:22.923Z,94624.98
2022-11-24T15:01:51.422Z,94625.27
2022-11-24T15:07:31.368Z,94628.76
2022-11-24T15:10:05.484Z,94632.30
2022-11-24T15:12:42.550Z,94629.94
2022-11-24T15:15:20.697Z,94635.33
2022-11-24T15:18:00.338Z,94638.89
2022-11-24T15:20:44.243Z,94637.10
2022-11-24T15:23:33.525Z,94641.64
2022-11-24T15:26:01.555Z,94643.46
2022-11-24T15:28:31.640Z,94646.30
2022-11-24T15:31:03.955Z,94644.85
2022-11-24T15:33:32.606Z,94650.96
2022-11-24T15:36:00.680Z,94649.56
2022-11-24T15:38:29.134Z,94648.99
2022-11-24T15:41:00.145Z,94652.11
2022-11-24T15:43:34.394Z,94657.79
2022-11-24T15:46:04.031Z,94660.80
2022-11-24T15:48:32.387Z,94661.56
2022-11-24T15:51:05.899Z,94664.83
2022-11-24T15:53:37.916Z,94670.92
2022-11-24T15:56:14.242Z,94673.75
2022-11-24T15:58:42.212Z,94677.05
2022-11-24T16:01:10.401Z,94680.23
2022-11-24T16:03:46.991Z,94681.42
2022-11-24T16:06:24.118Z,94686.13
2022-11-24T16:08:54.501Z,94683.90
2022-11-24T16:11:23.506Z,94686.48
2022-11-24T16:13:53.637Z,94687.36
2022-11-24T16:16:23.650Z,94686.02
2022-11-24T16:18:52.146Z,94687.45
2022-11-24T16:21:20.229Z,94686.89
2022-11-24T16:23:48.924Z,94688.82
2022-11-24T16:26:16.933Z,94689.98
2022-11-24T16:28:45.958Z,94691.64
2022-11-24T16:31:16.225Z,94692.75
2022-11-24T16:33:46.463Z,94696.29
2022-11-24T16:36:14.655Z,94700.86
2022-11-24T16:38:42.798Z,94702.65
2022-11-24T16:41:11.156Z,94705.61
2022-11-24T16:43:39.308Z,94703.20
2022-11-24T16:46:20.446Z,94706.61
2022-11-24T16:48:51.679Z,94705.11
2022-11-24T16:51:22.173Z,94708.41
2022-11-24T16:53:58.308Z,94711.38
2022-11-24T16:56:28.295Z,94714.98
2022-11-24T16:58:56.407Z,94712.30
2022-11-24T17:01:26.153Z,94710.09
2022-11-24T17:03:54.474Z,94710.16
2022-11-24T17:06:22.546Z,94709.39
2022-11-24T17:08:50.656Z,94709.86
2022-11-24T17:11:21.580Z,94712.14
2022-11-24T17:13:50.506Z,94710.98
2022-11-24T17:16:23.146Z,94710.02
2022-11-24T17:18:51.784Z,94709.54
2022-11-24T17:21:22.524Z,94707.56
2022-11-24T17:23:55.653Z,94710.36
2022-11-24T17:26:25.045Z,94707.86
2022-11-24T17:28:54.257Z,94709.33
2022-11-24T17:31:25.221Z,94711.88
2022-11-24T17:33:55.645Z,94705.89
2022-11-24T17:36:24.267Z,94711.23
2022-11-24T17:38:52.728Z,94711.96
2022-11-24T17:41:21.777Z,94714.17
2022-11-24T17:43:52.081Z,94715.50
2022-11-24T17:46:20.439Z,94720.38
2022-11-24T17:48:48.634Z,94724.05
2022-11-24T17:51:22.475Z,94726.07
2022-11-24T17:53:52.412Z,94728.42
2022-11-24T17:56:25.594Z,94725.95
2022-11-24T17:59:01.310Z,94728.92
2022-11-24T18:01:31.491Z,94730.59
2022-11-24T18:03:59.992Z,94732.13
2022-11-24T18:06:29.055Z,94733.11
2022-11-24T18:08:58.121Z,94735.31
2022-11-24T18:11:31.407Z,94736.17
2022-11-24T18:14:03.196Z,94741.56
2022-11-24T18:16:33.416Z,94738.98
2022-11-24T18:19:11.648Z,94740.73
2022-11-24T18:21:41.428Z,94739.14
2022-11-24T18:24:11.495Z,94737.70
2022-11-24T18:26:40.873Z,94736.36
2022-11-24T18:29:10.495Z,94739.61
2022-11-24T18:31:39.323Z,94739.48
2022-11-24T18:34:08.177Z,94741.67
2022-11-24T18:36:36.739Z,94743.67
2022-11-24T18:39:07.513Z,94747.07
2022-11-24T18:41:36.178Z,94748.39
2022-11-24T18:44:08.131Z,94750.90
2022-11-24T18:46:37.739Z,94755.39
2022-11-24T18:49:07.457Z,94758.30
2022-11-24T18:51:35.999Z,94762.79
2022-11-24T18:54:05.615Z,94769.98
2022-11-24T18:56:33.997Z,94772.75
2022-11-24T18:59:02.501Z,94774.23
2022-11-24T19:01:31.319Z,94776.64
2022-11-24T19:04:02.070Z,94775.90
2022-11-24T19:06:32.749Z,94772.91
2022-11-24T19:09:07.292Z,94774.13
2022-11-24T19:11:38.603Z,94776.53
2022-11-24T19:14:09.585Z,94781.17
2022-11-24T19:16:38.032Z,94779.87
2022-11-24T19:19:07.026Z,94782.73
2022-11-24T19:21:37.532Z,94783.09
2022-11-24T19:24:10.158Z,94787.46
2022-11-24T19:26:39.366Z,94787.52
2022-11-24T19:29:08.685Z,94794.19
2022-11-24T19:31:41.230Z,94790.73
2022-11-24T19:34:09.967Z,94792.20
2022-11-24T19:36:38.567Z,94793.27
2022-11-24T19:39:07.171Z,94795.29
2022-11-24T19:41:37.604Z,94798.71
2022-11-24T19:44:05.997Z,94802.21
2022-11-24T19:46:34.041Z,94802.67
2022-11-24T19:49:02.839Z,94804.98
2022-11-24T19:51:33.452Z,94803.12
2022-11-24T19:54:03.698Z,94811.71
2022-11-24T19:56:35.047Z,94811.46
2022-11-24T19:59:05.284Z,94813.48
2022-11-24T20:01:37.531Z,94817.25
2022-11-24T20:04:15.671Z,94821.89
2022-11-24T20:06:46.041Z,94824.34
2022-11-24T20:09:16.871Z,94822.54
2022-11-24T20:11:45.425Z,94821.59
2022-11-24T20:14:15.849Z,94834.98
2022-11-24T20:16:45.622Z,94836.61
2022-11-24T20:19:16.432Z,94837.17
2022-11-24T20:21:47.868Z,94837.29
2022-11-24T20:24:19.190Z,94838.45
2022-11-24T20:26:50.162Z,94838.13
2022-11-24T20:29:21.182Z,94838.72
2022-11-24T20:31:53.016Z,94842.32
2022-11-24T20:34:21.805Z,94846.70
2022-11-24T20:36:50.468Z,94849.94
2022-11-24T20:39:26.390Z,94850.64
2022-11-24T20:41:56.173Z,94851.64
2022-11-24T20:44:26.801Z,94856.02
2022-11-24T20:46:57.285Z,94858.38
2022-11-24T20:49:26.603Z,94864.53
2022-11-24T20:51:57.007Z,94865.44
2022-11-24T20:54:25.107Z,94868.16
2022-11-24T20:56:53.287Z,94870.84
2022-11-24T20:59:23.563Z,94872.62
2022-11-24T21:01:55.271Z,94871.98
2022-11-24T21:04:26.525Z,94871.54
2022-11-24T21:06:54.964Z,94878.29
2022-11-24T21:09:23.229Z,94877.10
2022-11-24T21:11:51.407Z,94878.83
2022-11-24T21:14:19.388Z,94873.91
2022-11-24T21:16:47.525Z,94880.27
2022-11-24T21:19:18.960Z,94883.36
2022-11-24T21:21:47.887Z,94886.14
2022-11-24T21:24:18.520Z,94887.05
2022-11-24T21:26:48.017Z,94893.19
2022-11-24T21:29:22.407Z,94898.61
2022-11-24T21:31:50.533Z,94893.70
2022-11-24T21:34:19.690Z,94898.73
2022-11-24T21:36:48.475Z,94899.95
2022-11-24T21:39:16.773Z,94902.29
2022-11-24T21:41:45.055Z,94903.29
2022-11-24T21:44:14.171Z,94906.13
2022-11-24T21:46:48.157Z,94909.23
2022-11-24T21:49:19.232Z,94912.90
2022-11-24T21:51:47.499Z,94912.34
2022-11-24T21:54:15.691Z,94912.45
2022-11-24T21:56:43.771Z,94916.95
2022-11-24T21:59:11.766Z,94917.11
2022-11-24T22:01:40.213Z,94917.00
2022-11-24T22:04:09.455Z,94922.20
2022-11-24T22:06:37.661Z,94920.64
2022-11-24T22:09:05.648Z,94921.84
2022-11-24T22:11:33.637Z,94926.45
2022-11-24T22:14:01.627Z,94929.41
2022-11-24T22:16:29.875Z,94934.17
2022-11-24T22:19:00.165Z,94935.00
2022-11-24T22:21:33.427Z,94941.23
2022-11-24T22:24:02.392Z,94941.98
2022-11-24T22:26:30.468Z,94944.45
2022-11-24T22:28:58.911Z,94947.66
2022-11-24T22:31:30.734Z,94947.15
2022-11-24T22:34:00.484Z,94947.06
2022-11-24T22:36:30.241Z,94946.55
2022-11-24T22:39:04.142Z,94948.91
2022-11-24T22:41:34.450Z,94950.97
2022-11-24T22:44:02.530Z,94951.71
2022-11-24T22:46:31.637Z,94957.23
2022-11-24T22:49:01.072Z,94955.92
2022-11-24T22:51:33.949Z,94965.51
2022-11-24T22:54:04.311Z,94960.66
2022-11-24T22:56:33.729Z,94963.89
2022-11-24T22:59:04.619Z,94965.48
2022-11-24T23:01:36.084Z,94972.18
2022-11-24T23:04:04.878Z,94973.87
2022-11-24T23:06:34.073Z,94975.41
2022-11-24T23:09:03.885Z,94980.77
2022-11-24T23:11:37.937Z,94984.98
2022-11-24T23:14:16.752Z,94984.09
2022-11-24T23:16:45.173Z,94985.91
2022-11-24T23:19:13.231Z,94986.50
2022-11-24T23:21:41.268Z,94993.92
2022-11-24T23:24:10.452Z,94995.56
2022-11-24T23:26:40.266Z,94996.71
2022-11-24T23:29:10.081Z,94999.15
2022-11-24T23:31:40.258Z,95006.24
2022-11-24T23:34:09.234Z,95007.43
2022-11-24T23:36:37.458Z,95015.42
2022-11-24T23:39:08.734Z,95018.48
2022-11-24T23:41:36.915Z,95021.10
2022-11-24T23:44:05.260Z,95028.88
2022-11-24T23:46:33.754Z,95029.33
2022-11-24T23:49:01.854Z,95030.70
2022-11-24T23:51:32.301Z,95035.20
2022-11-24T23:54:01.167Z,95035.52
2022-11-24T23:56:33.334Z,95040.30
2022-11-24T23:59:03.226Z,95042.44
